createdAt,value
2023-04-01T00:02:06.130Z,1.60
2023-04-01T00:04:33.816Z,1.80
2023-04-01T00:07:02.572Z,1.92
2023-04-01T00:09:30.567Z,2.03
2023-04-01T00:11:58.075Z,1.83
2023-04-01T00:14:26.924Z,1.80
2023-04-01T00:16:54.609Z,1.92
2023-04-01T00:19:22.172Z,2.22
2023-04-01T00:21:49.863Z,2.10
2023-04-01T00:24:17.378Z,2.15
2023-04-01T00:26:45.497Z,1.70
2023-04-01T00:29:12.984Z,1.98
2023-04-01T00:31:41.900Z,1.90
2023-04-01T00:34:09.568Z,2.03
2023-04-01T00:36:37.078Z,1.80
2023-04-01T00:39:04.645Z,1.90
2023-04-01T00:41:32.143Z,1.90
2023-04-01T00:44:18.988Z,1.60
2023-04-01T00:46:48.603Z,1.75
2023-04-01T00:49:18.540Z,1.90
2023-04-01T00:51:49.732Z,2.10
2023-04-01T00:54:19.550Z,1.83
2023-04-01T00:56:50.743Z,1.80
2023-04-01T00:59:22.906Z,1.80
2023-04-01T01:01:52.058Z,1.80
2023-04-01T01:04:25.206Z,1.90
2023-04-01T01:06:59.439Z,1.70
2023-04-01T01:09:42.750Z,1.80
2023-04-01T01:12:15.516Z,1.80
2023-04-01T01:15:08.381Z,1.63
2023-04-01T01:17:49.830Z,1.60
2023-04-01T01:20:49.886Z,1.80
2023-04-01T01:23:46.580Z,1.90
2023-04-01T01:26:40.354Z,2.13
2023-04-01T01:29:19.885Z,2.20
2023-04-01T01:31:58.631Z,1.80
2023-04-01T01:34:38.204Z,1.70
2023-04-01T01:37:12.228Z,2.10
2023-04-01T01:39:43.426Z,1.80
2023-04-01T01:42:13.819Z,1.90
2023-04-01T01:44:44.883Z,1.77
2023-04-01T01:47:13.604Z,1.80
2023-04-01T01:49:43.239Z,1.63
2023-04-01T01:52:12.607Z,1.83
2023-04-01T01:54:49.492Z,1.70
2023-04-01T01:57:19.087Z,1.77
2023-04-01T01:59:47.882Z,1.77
2023-04-01T02:02:17.031Z,1.63
2023-04-01T02:04:47.243Z,1.85
2023-04-01T02:07:21.865Z,1.80
2023-04-01T02:09:51.391Z,1.65
2023-04-01T02:12:21.265Z,1.52
2023-04-01T02:14:54.284Z,1.73
2023-04-01T02:17:23.195Z,1.80
2023-04-01T02:19:55.518Z,1.60
2023-04-01T02:22:28.075Z,1.60
2023-04-01T02:24:59.408Z,1.80
2023-04-01T02:27:27.349Z,1.83
2023-04-01T02:29:55.140Z,1.80
2023-04-01T02:32:23.036Z,1.40
2023-04-01T02:34:51.347Z,1.40
2023-04-01T02:37:19.685Z,1.90
2023-04-01T02:39:48.510Z,1.70
2023-04-01T02:42:16.501Z,1.60
2023-04-01T02:44:43.967Z,1.42
2023-04-01T02:47:11.459Z,1.60
2023-04-01T02:49:38.976Z,1.80
2023-04-01T02:52:06.664Z,1.50
2023-04-01T02:54:40.378Z,1.40
2023-04-01T02:57:09.266Z,1.50
2023-04-01T02:59:36.716Z,1.42
2023-04-01T03:02:04.241Z,1.30
2023-04-01T03:04:31.725Z,1.80
2023-04-01T03:06:59.343Z,1.50
2023-04-01T03:09:26.880Z,1.30
2023-04-01T03:11:54.337Z,1.40
2023-04-01T03:14:23.223Z,1.50
2023-04-01T03:16:50.782Z,1.73
2023-04-01T03:19:18.263Z,1.63
2023-04-01T03:21:45.738Z,1.20
2023-04-01T03:24:13.186Z,1.10
2023-04-01T03:26:40.621Z,1.25
2023-04-01T03:29:08.060Z,1.40
2023-04-01T03:31:36.819Z,1.63
2023-04-01T03:34:04.264Z,1.55
2023-04-01T03:36:31.752Z,1.30
2023-04-01T03:38:59.253Z,1.40
2023-04-01T03:41:27.334Z,1.30
2023-04-01T03:43:55.861Z,1.30
2023-04-01T03:46:23.389Z,1.50
2023-04-01T03:48:52.291Z,1.50
2023-04-01T03:51:19.748Z,1.52
2023-04-01T03:53:47.170Z,1.52
2023-04-01T03:56:14.652Z,1.50
2023-04-01T03:58:42.075Z,1.35
2023-04-01T04:01:17.721Z,1.60
2023-04-01T04:03:46.836Z,1.42
2023-04-01T04:06:16.275Z,1.63
2023-04-01T04:08:44.106Z,1.60
2023-04-01T04:11:11.854Z,1.60
2023-04-01T04:13:39.325Z,1.60
2023-04-01T04:16:07.355Z,1.60
2023-04-01T04:18:35.521Z,1.80
2023-04-01T04:21:03.239Z,1.77
2023-04-01T04:23:34.366Z,2.20
2023-04-01T04:26:03.611Z,1.80
2023-04-01T04:28:31.189Z,2.40
2023-04-01T04:30:59.071Z,1.70
2023-04-01T04:33:27.338Z,1.98
2023-04-01T04:35:58.120Z,2.00
2023-04-01T04:38:26.113Z,1.90
2023-04-01T04:40:55.287Z,2.00
2023-04-01T04:43:22.899Z,1.92
2023-04-01T04:45:50.490Z,1.98
2023-04-01T04:48:21.067Z,1.73
2023-04-01T04:50:50.148Z,1.63
2023-04-01T04:53:19.149Z,1.90
2023-04-01T04:55:47.039Z,1.67
2023-04-01T04:58:16.137Z,1.75
2023-04-01T05:00:44.355Z,1.77
2023-04-01T05:03:12.887Z,2.00
2023-04-01T05:05:41.493Z,1.90
2023-04-01T05:08:08.991Z,1.73
2023-04-01T05:10:36.784Z,1.75
2023-04-01T05:13:04.259Z,1.90
2023-04-01T05:15:33.327Z,1.83
2023-04-01T05:18:01.085Z,1.60
2023-04-01T05:20:28.705Z,1.60
2023-04-01T05:22:58.128Z,1.70
2023-04-01T05:25:25.875Z,1.70
2023-04-01T05:27:53.355Z,1.70
2023-04-01T05:30:21.023Z,1.50
2023-04-01T05:32:49.899Z,1.63
2023-04-01T05:35:17.558Z,1.60
2023-04-01T05:37:45.229Z,1.70
2023-04-01T05:40:13.034Z,1.70
2023-04-01T05:42:40.710Z,1.75
2023-04-01T05:45:09.879Z,1.80
2023-04-01T05:47:37.480Z,1.90
2023-04-01T05:50:07.040Z,1.65
2023-04-01T05:52:34.518Z,1.70
2023-04-01T05:55:02.013Z,1.70
2023-04-01T05:57:29.513Z,1.55
2023-04-01T05:59:57.062Z,1.70
2023-04-01T06:02:24.751Z,1.52
2023-04-01T06:05:03.952Z,1.60
2023-04-01T06:07:33.048Z,2.03
2023-04-01T06:10:01.695Z,1.60
2023-04-01T06:12:43.079Z,1.60
2023-04-01T06:15:22.302Z,1.70
2023-04-01T06:18:03.233Z,1.70
2023-04-01T06:20:39.588Z,1.60
2023-04-01T06:23:23.473Z,1.50
2023-04-01T06:26:02.587Z,1.50
2023-04-01T06:28:44.960Z,1.73
2023-04-01T06:31:23.743Z,1.63
2023-04-01T06:34:08.300Z,1.60
2023-04-01T06:37:00.796Z,1.77
2023-04-01T06:39:41.488Z,1.63
2023-04-01T06:42:27.717Z,1.63
2023-04-01T06:45:09.065Z,1.58
2023-04-01T06:47:47.082Z,1.80
2023-04-01T06:50:23.801Z,1.70
2023-04-01T06:53:00.302Z,1.55
2023-04-01T06:55:36.652Z,1.42
2023-04-01T06:58:07.293Z,1.50
2023-04-01T07:00:38.719Z,1.50
2023-04-01T07:03:19.948Z,1.40
2023-04-01T07:05:47.599Z,1.45
2023-04-01T07:08:19.890Z,1.60
2023-04-01T07:10:55.585Z,1.50
2023-04-01T07:13:27.546Z,1.67
2023-04-01T07:16:08.869Z,1.73
2023-04-01T07:18:43.557Z,1.80
2023-04-01T07:21:21.543Z,1.67
2023-04-01T07:23:51.027Z,1.77
2023-04-01T07:26:22.639Z,1.80
2023-04-01T07:28:50.732Z,1.95
2023-04-01T07:31:26.340Z,1.90
2023-04-01T07:34:03.420Z,1.80
2023-04-01T07:36:40.384Z,1.88
2023-04-01T07:39:22.572Z,1.80
2023-04-01T07:41:58.962Z,1.80
2023-04-01T07:44:33.189Z,1.80
2023-04-01T07:47:33.521Z,1.80
2023-04-01T07:50:11.109Z,1.70
2023-04-01T07:52:46.224Z,1.80
2023-04-01T07:55:20.417Z,1.77
2023-04-01T07:57:55.763Z,1.50
2023-04-01T08:00:26.716Z,1.60
2023-04-01T08:03:10.479Z,1.50
2023-04-01T08:05:46.874Z,1.60
2023-04-01T08:08:20.135Z,1.60
2023-04-01T08:10:54.379Z,1.45
2023-04-01T08:13:37.027Z,1.55
2023-04-01T08:16:14.737Z,1.60
2023-04-01T08:18:51.623Z,1.63
2023-04-01T08:21:24.153Z,1.58
2023-04-01T08:23:54.325Z,1.60
2023-04-01T08:26:30.575Z,1.65
2023-04-01T08:29:04.454Z,1.70
2023-04-01T08:31:36.722Z,1.50
2023-04-01T08:34:06.852Z,1.60
2023-04-01T08:36:38.990Z,1.65
2023-04-01T08:39:11.880Z,1.77
2023-04-01T08:42:00.976Z,1.80
2023-04-01T08:45:01.117Z,1.80
2023-04-01T08:47:44.303Z,1.98
2023-04-01T08:50:35.158Z,2.30
2023-04-01T08:53:08.839Z,1.80
2023-04-01T08:55:48.880Z,1.80
2023-04-01T08:58:55.350Z,1.85
2023-04-01T09:04:16.347Z,1.95
2023-04-01T09:06:57.701Z,2.17
2023-04-01T09:09:44.249Z,2.20
2023-04-01T09:12:41.922Z,2.20
2023-04-01T09:15:50.841Z,2.00
2023-04-01T09:18:46.198Z,1.92
2023-04-01T09:21:31.607Z,2.10
2023-04-01T09:24:23.627Z,2.13
2023-04-01T09:27:17.002Z,1.98
2023-04-01T09:30:01.398Z,2.03
2023-04-01T09:33:17.047Z,2.25
2023-04-01T09:35:49.334Z,2.45
2023-04-01T09:38:31.963Z,2.70
2023-04-01T09:41:04.397Z,2.70
2023-04-01T09:44:00.948Z,2.65
2023-04-01T09:46:39.828Z,3.15
2023-04-01T09:49:31.241Z,3.28
2023-04-01T09:52:27.649Z,2.97
2023-04-01T09:55:08.468Z,3.28
2023-04-01T09:58:18.105Z,3.63
2023-04-01T10:01:05.720Z,3.30
2023-04-01T10:04:09.144Z,3.80
2023-04-01T10:07:10.407Z,3.83
2023-04-01T10:10:25.600Z,3.67
2023-04-01T10:13:27.298Z,3.70
2023-04-01T10:16:27.463Z,3.90
2023-04-01T10:19:31.647Z,3.80
2023-04-01T10:22:19.584Z,4.60
2023-04-01T10:25:06.540Z,4.50
2023-04-01T10:28:08.161Z,4.10
2023-04-01T10:31:13.167Z,4.50
2023-04-01T10:34:02.154Z,4.00
2023-04-01T10:36:55.128Z,4.05
2023-04-01T10:39:36.767Z,4.22
2023-04-01T10:42:43.085Z,4.45
2023-04-01T10:46:01.278Z,3.70
2023-04-01T10:49:00.915Z,4.18
2023-04-01T10:51:59.191Z,4.38
2023-04-01T10:54:47.481Z,4.78
2023-04-01T10:57:44.008Z,3.63
2023-04-01T11:00:46.986Z,4.13
2023-04-01T11:03:57.345Z,3.95
2023-04-01T11:07:12.203Z,4.32
2023-04-01T11:10:31.791Z,4.03
2023-04-01T11:13:41.324Z,3.97
2023-04-01T11:16:39.566Z,4.10
2023-04-01T11:19:39.660Z,4.38
2023-04-01T11:22:24.590Z,4.00
2023-04-01T11:25:19.676Z,3.60
2023-04-01T11:28:16.683Z,3.38
2023-04-01T11:30:59.627Z,3.22
2023-04-01T11:33:36.756Z,3.13
2023-04-01T11:36:27.965Z,3.13
2023-04-01T11:39:24.554Z,3.80
2023-04-01T11:42:00.534Z,3.42
2023-04-01T11:44:30.632Z,3.10
2023-04-01T11:47:16.698Z,3.08
2023-04-01T11:50:02.354Z,3.47
2023-04-01T11:55:25.919Z,3.35
2023-04-01T11:58:07.178Z,3.70
2023-04-01T12:01:06.417Z,3.60
2023-04-01T12:03:53.810Z,3.20
2023-04-01T12:06:33.474Z,3.35
2023-04-01T12:09:06.177Z,3.20
2023-04-01T12:11:40.398Z,3.20
2023-04-01T12:14:18.105Z,3.55
2023-04-01T12:17:00.730Z,3.58
2023-04-01T12:19:38.748Z,3.63
2023-04-01T12:22:39.174Z,3.50
2023-04-01T12:25:23.816Z,3.03
2023-04-01T12:28:08.340Z,3.00
2023-04-01T12:30:48.974Z,2.85
2023-04-01T12:33:35.048Z,2.90
2023-04-01T12:36:15.902Z,2.92
2023-04-01T12:38:56.578Z,2.80
2023-04-01T12:41:33.463Z,3.40
2023-04-01T12:44:13.949Z,3.60
2023-04-01T12:46:57.050Z,3.78
2023-04-01T12:49:36.225Z,3.20
2023-04-01T12:52:11.515Z,2.92
2023-04-01T12:55:04.019Z,3.08
2023-04-01T12:58:07.501Z,2.70
2023-04-01T13:00:48.095Z,3.00
2023-04-01T13:03:40.943Z,2.85
2023-04-01T13:06:30.549Z,3.28
2023-04-01T13:09:07.934Z,3.33
2023-04-01T13:11:49.530Z,3.78
2023-04-01T13:14:35.789Z,3.83
2023-04-01T13:17:13.104Z,3.97
2023-04-01T13:20:02.079Z,4.13
2023-04-01T13:22:41.702Z,5.32
2023-04-01T13:25:22.198Z,4.45
2023-04-01T13:27:58.359Z,5.50
2023-04-01T13:30:30.176Z,5.32
2023-04-01T13:33:04.346Z,5.85
2023-04-01T13:35:41.140Z,5.07
2023-04-01T13:38:33.620Z,5.20
2023-04-01T13:41:08.381Z,5.28
2023-04-01T13:43:41.525Z,4.90
2023-04-01T13:46:25.942Z,4.50
2023-04-01T13:49:22.068Z,4.45
2023-04-01T13:52:19.562Z,4.40
2023-04-01T13:55:05.496Z,4.25
2023-04-01T13:58:04.799Z,4.55
2023-04-01T14:00:43.980Z,3.90
2023-04-01T14:03:40.009Z,4.03
2023-04-01T14:06:30.238Z,3.63
2023-04-01T14:09:13.706Z,4.07
2023-04-01T14:11:47.350Z,4.00
2023-04-01T14:14:25.785Z,3.50
2023-04-01T14:17:19.713Z,3.95
2023-04-01T14:20:04.287Z,3.22
2023-04-01T14:22:40.522Z,3.40
2023-04-01T14:25:33.617Z,3.20
2023-04-01T14:28:15.490Z,3.10
2023-04-01T14:31:17.650Z,3.55
2023-04-01T14:34:00.447Z,3.50
2023-04-01T14:36:49.411Z,3.70
2023-04-01T14:39:51.564Z,3.80
2023-04-01T14:42:32.631Z,3.85
2023-04-01T14:45:22.596Z,3.50
2023-04-01T14:47:54.803Z,4.22
2023-04-01T14:50:27.210Z,3.60
2023-04-01T14:53:01.001Z,4.25
2023-04-01T14:55:46.221Z,4.55
2023-04-01T14:58:15.458Z,3.85
2023-04-01T15:00:50.543Z,3.75
2023-04-01T15:03:25.132Z,4.20
2023-04-01T15:06:03.030Z,3.58
2023-04-01T15:08:34.178Z,3.75
2023-04-01T15:11:31.204Z,3.72
2023-04-01T15:14:39.171Z,4.40
2023-04-01T15:17:22.723Z,3.92
2023-04-01T15:20:12.419Z,4.30
2023-04-01T15:23:01.712Z,5.00
2023-04-01T15:25:41.472Z,4.90
2023-04-01T15:28:16.914Z,5.03
2023-04-01T15:30:52.517Z,5.60
2023-04-01T15:33:33.245Z,5.35
2023-04-01T15:36:10.736Z,5.60
2023-04-01T15:38:46.431Z,4.90
2023-04-01T15:41:17.852Z,5.03
2023-04-01T15:43:46.766Z,4.97
2023-04-01T15:46:28.539Z,5.00
2023-04-01T15:49:17.535Z,5.78
2023-04-01T15:52:00.392Z,5.72
2023-04-01T15:54:40.429Z,6.00
2023-04-01T15:57:30.594Z,5.82
2023-04-01T16:00:13.881Z,5.68
2023-04-01T16:02:49.919Z,6.40
2023-04-01T16:05:44.637Z,6.18
2023-04-01T16:08:51.010Z,5.75
2023-04-01T16:14:05.409Z,6.07
2023-04-01T16:16:48.176Z,5.88
2023-04-01T16:19:36.366Z,5.72
2023-04-01T16:22:10.116Z,5.22
2023-04-01T16:24:44.166Z,5.22
2023-04-01T16:27:17.518Z,4.88
2023-04-01T16:29:50.762Z,4.63
2023-04-01T16:32:31.107Z,4.95
2023-04-01T16:35:20.980Z,4.88
2023-04-01T16:37:52.619Z,3.83
2023-04-01T16:40:35.968Z,4.07
2023-04-01T16:43:15.403Z,3.92
2023-04-01T16:45:49.263Z,4.50
2023-04-01T16:48:19.317Z,3.80
2023-04-01T16:50:55.821Z,3.78
2023-04-01T16:53:36.383Z,4.28
2023-04-01T16:56:13.152Z,4.30
2023-04-01T16:58:50.285Z,4.28
2023-04-01T17:01:24.204Z,3.85
2023-04-01T17:03:59.284Z,4.43
2023-04-01T17:06:33.644Z,4.63
2023-04-01T17:09:16.528Z,3.97
2023-04-01T17:11:50.692Z,4.10
2023-04-01T17:14:27.150Z,4.22
2023-04-01T17:17:03.445Z,4.72
2023-04-01T17:20:10.048Z,4.45
2023-04-01T17:22:44.403Z,4.63
2023-04-01T17:25:27.585Z,4.50
2023-04-01T17:28:00.982Z,4.43
2023-04-01T17:30:36.260Z,4.78
2023-04-01T17:33:32.098Z,4.35
2023-04-01T17:36:06.382Z,4.68
2023-04-01T17:38:53.887Z,4.83
2023-04-01T17:41:29.762Z,4.70
2023-04-01T17:44:03.541Z,5.10
2023-04-01T17:46:57.283Z,4.78
2023-04-01T17:49:32.825Z,4.75
2023-04-01T17:52:11.959Z,5.07
2023-04-01T17:54:48.418Z,5.43
2023-04-01T17:57:44.476Z,4.97
2023-04-01T18:03:07.263Z,4.88
2023-04-01T18:05:52.937Z,5.55
2023-04-01T18:11:07.675Z,6.40
2023-04-01T18:14:14.881Z,5.50
2023-04-01T18:17:04.021Z,5.43
2023-04-01T18:19:43.904Z,5.68
2023-04-01T18:22:20.841Z,5.30
2023-04-01T18:24:59.111Z,5.60
2023-04-01T18:27:32.888Z,5.65
2023-04-01T18:30:04.422Z,6.05
2023-04-01T18:32:37.790Z,5.95
2023-04-01T18:35:21.217Z,5.85
2023-04-01T18:37:56.251Z,5.90
2023-04-01T18:40:30.788Z,5.97
2023-04-01T18:43:11.002Z,6.30
2023-04-01T18:45:43.384Z,6.63
2023-04-01T18:48:34.489Z,6.85
2023-04-01T18:51:12.520Z,7.50
2023-04-01T18:53:44.452Z,7.47
2023-04-01T18:56:15.883Z,7.07
2023-04-01T18:58:50.152Z,6.80
2023-04-01T19:01:25.523Z,6.83
2023-04-01T19:04:12.135Z,7.10
2023-04-01T19:06:48.705Z,7.63
2023-04-01T19:09:23.369Z,6.85
2023-04-01T19:12:09.516Z,6.57
2023-04-01T19:14:53.301Z,7.20
2023-04-01T19:17:34.973Z,7.90
2023-04-01T19:20:12.704Z,6.97
2023-04-01T19:22:58.775Z,7.05
2023-04-01T19:25:37.673Z,6.70
2023-04-01T19:28:21.501Z,7.00
2023-04-01T19:30:55.967Z,6.88
2023-04-01T19:33:53.861Z,6.05
2023-04-01T19:36:31.558Z,6.00
2023-04-01T19:39:17.031Z,5.53
2023-04-01T19:41:52.395Z,5.28
2023-04-01T19:44:32.855Z,5.63
2023-04-01T19:47:09.776Z,4.03
2023-04-01T19:49:52.418Z,3.55
2023-04-01T19:52:28.147Z,3.10
2023-04-01T19:55:03.182Z,2.47
2023-04-01T19:57:40.350Z,3.30
2023-04-01T20:00:18.004Z,3.75
2023-04-01T20:02:57.954Z,3.63
2023-04-01T20:05:37.041Z,3.22
2023-04-01T20:08:14.333Z,2.97
2023-04-01T20:10:50.061Z,2.60
2023-04-01T20:13:28.145Z,3.40
2023-04-01T20:16:03.813Z,3.88
2023-04-01T20:18:40.215Z,3.85
2023-04-01T20:21:20.589Z,4.10
2023-04-01T20:23:54.564Z,4.22
2023-04-01T20:26:27.673Z,4.15
2023-04-01T20:29:14.362Z,4.30
2023-04-01T20:31:43.609Z,11.05
2023-04-01T20:34:37.953Z,22.98
2023-04-01T20:37:23.238Z,10.82
2023-04-01T20:40:19.262Z,18.77
2023-04-01T20:45:39.880Z,12.40
2023-04-01T20:48:29.532Z,8.10
2023-04-01T20:51:00.943Z,9.40
2023-04-01T20:53:33.156Z,8.20
2023-04-01T20:56:31.069Z,8.60
2023-04-01T20:59:18.551Z,7.50
2023-04-01T21:01:56.638Z,6.75
2023-04-01T21:04:30.140Z,6.85
2023-04-01T21:07:14.998Z,4.93
2023-04-01T21:09:53.805Z,4.50
2023-04-01T21:12:32.412Z,3.78
2023-04-01T21:15:23.757Z,3.13
2023-04-01T21:18:06.353Z,2.92
2023-04-01T21:21:06.521Z,3.05
2023-04-01T21:23:49.273Z,3.42
2023-04-01T21:26:28.834Z,3.20
2023-04-01T21:29:19.867Z,3.42
2023-04-01T21:32:17.298Z,3.00
2023-04-01T21:34:53.017Z,3.22
2023-04-01T21:37:43.481Z,3.40
2023-04-01T21:40:37.850Z,3.50
2023-04-01T21:43:17.266Z,3.80
2023-04-01T21:46:06.715Z,3.58
2023-04-01T21:48:51.659Z,3.92
2023-04-01T21:51:57.586Z,3.47
2023-04-01T21:54:57.718Z,3.47
2023-04-01T21:57:57.007Z,4.00
2023-04-01T22:00:27.672Z,3.80
2023-04-01T22:03:27.187Z,3.60
2023-04-01T22:06:02.495Z,3.20
2023-04-01T22:08:42.036Z,3.38
2023-04-01T22:11:22.735Z,2.60
2023-04-01T22:13:52.677Z,2.90
2023-04-01T22:16:26.580Z,3.03
2023-04-01T22:19:03.154Z,3.30
2023-04-01T22:21:40.505Z,3.10
2023-04-01T22:24:19.947Z,3.70
2023-04-01T22:26:57.948Z,3.35
2023-04-01T22:29:30.484Z,3.08
2023-04-01T22:32:02.717Z,2.92
2023-04-01T22:34:40.736Z,2.97
2023-04-01T22:37:19.844Z,3.42
2023-04-01T22:40:10.830Z,4.75
2023-04-01T22:42:45.493Z,5.05
2023-04-01T22:45:32.173Z,4.60
2023-04-01T22:48:10.934Z,3.50
2023-04-01T22:50:44.009Z,3.10
2023-04-01T22:53:25.850Z,2.90
2023-04-01T22:55:55.293Z,3.10
2023-04-01T22:58:32.362Z,3.47
2023-04-01T23:01:03.708Z,4.20
2023-04-01T23:03:33.934Z,3.95
2023-04-01T23:06:03.971Z,4.22
2023-04-01T23:09:10.060Z,4.55
2023-04-01T23:11:45.391Z,4.07
2023-04-01T23:14:49.741Z,4.80
2023-04-01T23:17:48.015Z,4.07
2023-04-01T23:20:24.405Z,5.30
2023-04-01T23:23:01.549Z,3.88
2023-04-01T23:25:45.680Z,3.40
2023-04-01T23:28:55.017Z,3.25
2023-04-01T23:31:45.286Z,3.10
2023-04-01T23:34:29.484Z,3.30
2023-04-01T23:36:59.598Z,3.15
2023-04-01T23:39:31.260Z,2.90
2023-04-01T23:42:02.222Z,3.17
2023-04-01T23:44:30.873Z,3.30
2023-04-01T23:47:01.600Z,3.20
2023-04-01T23:49:36.294Z,3.55
2023-04-01T23:52:11.676Z,3.58
2023-04-01T23:54:45.062Z,3.70
2023-04-01T23:57:15.276Z,3.60
2023-04-01T23:59:42.890Z,3.78
